sensor_id;sensor_type;location;lat;lon;timestamp;temperature;humidity
45207;DHT22;30950;53.086;21.576;2023-02-22T00:01:34;2.70;99.90
45207;DHT22;30950;53.086;21.576;2023-02-22T00:04:05;2.70;99.90
45207;DHT22;30950;53.086;21.576;2023-02-22T00:06:32;2.60;99.90
45207;DHT22;30950;53.086;21.576;2023-02-22T00:09:00;2.60;99.90
45207;DHT22;30950;53.086;21.576;2023-02-22T00:11:28;2.60;99.90
45207;DHT22;30950;53.086;21.576;2023-02-22T00:13:57;2.60;99.90
45207;DHT22;30950;53.086;21.576;2023-02-22T00:16:25;2.60;99.90
45207;DHT22;30950;53.086;21.576;2023-02-22T00:18:54;2.50;99.90
45207;DHT22;30950;53.086;21.576;2023-02-22T00:21:21;2.50;99.90
45207;DHT22;30950;53.086;21.576;2023-02-22T00:23:48;2.50;99.90
45207;DHT22;30950;53.086;21.576;2023-02-22T00:26:19;2.50;99.90
45207;DHT22;30950;53.086;21.576;2023-02-22T00:28:48;2.50;99.90
45207;DHT22;30950;53.086;21.576;2023-02-22T00:31:17;2.40;99.90
45207;DHT22;30950;53.086;21.576;2023-02-22T00:33:45;2.40;99.90
45207;DHT22;30950;53.086;21.576;2023-02-22T00:36:13;2.30;99.90
45207;DHT22;30950;53.086;21.576;2023-02-22T00:38:41;2.30;99.90
45207;DHT22;30950;53.086;21.576;2023-02-22T00:41:09;2.30;99.90
45207;DHT22;30950;53.086;21.576;2023-02-22T00:43:37;2.20;99.90
45207;DHT22;30950;53.086;21.576;2023-02-22T00:46:05;2.20;99.90
45207;DHT22;30950;53.086;21.576;2023-02-22T00:48:33;2.20;99.90
45207;DHT22;30950;53.086;21.576;2023-02-22T00:51:00;2.10;99.90
45207;DHT22;30950;53.086;21.576;2023-02-22T00:53:28;2.10;99.90
45207;DHT22;30950;53.086;21.576;2023-02-22T00:55:56;2.10;99.90
45207;DHT22;30950;53.086;21.576;2023-02-22T00:58:23;2.10;99.90
45207;DHT22;30950;53.086;21.576;2023-02-22T01:00:51;2.10;99.90
45207;DHT22;30950;53.086;21.576;2023-02-22T01:03:19;2.00;99.90
45207;DHT22;30950;53.086;21.576;2023-02-22T01:05:47;2.00;99.90
45207;DHT22;30950;53.086;21.576;2023-02-22T01:08:15;2.00;99.90
45207;DHT22;30950;53.086;21.576;2023-02-22T01:10:43;1.90;99.90
45207;DHT22;30950;53.086;21.576;2023-02-22T01:13:11;1.90;99.90
45207;DHT22;30950;53.086;21.576;2023-02-22T01:15:41;1.90;99.90
45207;DHT22;30950;53.086;21.576;2023-02-22T01:18:11;1.90;99.90
45207;DHT22;30950;53.086;21.576;2023-02-22T01:20:39;1.90;99.90
45207;DHT22;30950;53.086;21.576;2023-02-22T01:23:07;1.90;99.90
45207;DHT22;30950;53.086;21.576;2023-02-22T01:25:36;1.80;99.90
45207;DHT22;30950;53.086;21.576;2023-02-22T01:28:05;1.80;99.90
45207;DHT22;30950;53.086;21.576;2023-02-22T01:30:34;1.90;99.90
45207;DHT22;30950;53.086;21.576;2023-02-22T01:33:04;1.80;99.90
45207;DHT22;30950;53.086;21.576;2023-02-22T01:35:34;1.80;99.90
45207;DHT22;30950;53.086;21.576;2023-02-22T01:38:02;1.80;99.90
45207;DHT22;30950;53.086;21.576;2023-02-22T01:40:35;1.80;99.90
45207;DHT22;30950;53.086;21.576;2023-02-22T01:43:21;1.80;99.90
45207;DHT22;30950;53.086;21.576;2023-02-22T01:45:52;1.80;99.90
45207;DHT22;30950;53.086;21.576;2023-02-22T01:54:00;1.80;99.90
45207;DHT22;30950;53.086;21.576;2023-02-22T01:56:31;1.80;99.90
45207;DHT22;30950;53.086;21.576;2023-02-22T01:59:07;1.80;99.90
45207;DHT22;30950;53.086;21.576;2023-02-22T02:01:37;1.70;99.90
45207;DHT22;30950;53.086;21.576;2023-02-22T02:04:09;1.70;99.90
45207;DHT22;30950;53.086;21.576;2023-02-22T02:06:37;1.70;99.90
45207;DHT22;30950;53.086;21.576;2023-02-22T02:12:01;1.70;99.90
45207;DHT22;30950;53.086;21.576;2023-02-22T02:14:31;1.70;99.90
45207;DHT22;30950;53.086;21.576;2023-02-22T02:16:59;1.70;99.90
45207;DHT22;30950;53.086;21.576;2023-02-22T02:19:43;1.70;99.90
45207;DHT22;30950;53.086;21.576;2023-02-22T02:22:22;1.70;99.90
45207;DHT22;30950;53.086;21.576;2023-02-22T02:33:56;1.80;99.90
45207;DHT22;30950;53.086;21.576;2023-02-22T02:39:48;1.80;99.90
45207;DHT22;30950;53.086;21.576;2023-02-22T02:42:23;1.80;99.90
45207;DHT22;30950;53.086;21.576;2023-02-22T02:45:05;1.80;99.90
45207;DHT22;30950;53.086;21.576;2023-02-22T02:47:39;1.80;99.90
45207;DHT22;30950;53.086;21.576;2023-02-22T02:50:09;1.80;99.90
45207;DHT22;30950;53.086;21.576;2023-02-22T02:52:39;1.90;99.90
45207;DHT22;30950;53.086;21.576;2023-02-22T02:55:08;1.90;99.90
45207;DHT22;30950;53.086;21.576;2023-02-22T02:57:40;1.90;99.90
45207;DHT22;30950;53.086;21.576;2023-02-22T03:00:08;1.90;99.90
45207;DHT22;30950;53.086;21.576;2023-02-22T03:03:19;1.90;99.90
45207;DHT22;30950;53.086;21.576;2023-02-22T03:08:33;1.90;99.90
45207;DHT22;30950;53.086;21.576;2023-02-22T03:11:11;1.90;99.90
45207;DHT22;30950;53.086;21.576;2023-02-22T03:16:51;1.90;99.90
45207;DHT22;30950;53.086;21.576;2023-02-22T03:19:36;1.90;99.90
45207;DHT22;30950;53.086;21.576;2023-02-22T03:22:25;1.90;99.90
45207;DHT22;30950;53.086;21.576;2023-02-22T03:25:07;1.80;99.90
45207;DHT22;30950;53.086;21.576;2023-02-22T03:27:48;1.80;99.90
45207;DHT22;30950;53.086;21.576;2023-02-22T03:30:25;1.80;99.90
45207;DHT22;30950;53.086;21.576;2023-02-22T03:33:16;1.80;99.90
45207;DHT22;30950;53.086;21.576;2023-02-22T03:35:55;1.80;99.90
45207;DHT22;30950;53.086;21.576;2023-02-22T03:38:28;1.80;99.90
45207;DHT22;30950;53.086;21.576;2023-02-22T03:40:59;1.80;99.90
45207;DHT22;30950;53.086;21.576;2023-02-22T03:43:33;1.80;99.90
45207;DHT22;30950;53.086;21.576;2023-02-22T03:46:03;1.80;99.90
45207;DHT22;30950;53.086;21.576;2023-02-22T03:48:51;1.80;99.90
45207;DHT22;30950;53.086;21.576;2023-02-22T03:51:21;1.90;99.90
45207;DHT22;30950;53.086;21.576;2023-02-22T03:53:55;1.80;99.90
45207;DHT22;30950;53.086;21.576;2023-02-22T03:56:32;1.80;99.90
45207;DHT22;30950;53.086;21.576;2023-02-22T03:59:06;1.80;99.90
45207;DHT22;30950;53.086;21.576;2023-02-22T04:01:34;1.80;99.90
45207;DHT22;30950;53.086;21.576;2023-02-22T04:04:02;1.80;99.90
45207;DHT22;30950;53.086;21.576;2023-02-22T04:07:01;1.80;99.90
45207;DHT22;30950;53.086;21.576;2023-02-22T04:10:06;1.80;99.90
45207;DHT22;30950;53.086;21.576;2023-02-22T04:12:37;1.80;99.90
45207;DHT22;30950;53.086;21.576;2023-02-22T04:15:07;1.80;99.90
45207;DHT22;30950;53.086;21.576;2023-02-22T04:17:36;1.80;99.90
45207;DHT22;30950;53.086;21.576;2023-02-22T04:20:04;1.80;99.90
45207;DHT22;30950;53.086;21.576;2023-02-22T04:22:42;1.80;99.90
45207;DHT22;30950;53.086;21.576;2023-02-22T04:25:10;1.80;99.90
45207;DHT22;30950;53.086;21.576;2023-02-22T04:27:37;1.80;99.90
45207;DHT22;30950;53.086;21.576;2023-02-22T04:30:05;1.80;99.90
45207;DHT22;30950;53.086;21.576;2023-02-22T04:32:34;1.80;99.90
45207;DHT22;30950;53.086;21.576;2023-02-22T04:35:03;1.80;99.90
45207;DHT22;30950;53.086;21.576;2023-02-22T04:37:31;1.70;99.90
45207;DHT22;30950;53.086;21.576;2023-02-22T04:40:04;1.80;99.90
45207;DHT22;30950;53.086;21.576;2023-02-22T04:42:36;1.80;99.90
45207;DHT22;30950;53.086;21.576;2023-02-22T04:45:06;1.70;99.90
45207;DHT22;30950;53.086;21.576;2023-02-22T04:47:38;1.70;99.90
45207;DHT22;30950;53.086;21.576;2023-02-22T04:50:07;1.80;99.90
45207;DHT22;30950;53.086;21.576;2023-02-22T04:52:34;1.80;99.90
45207;DHT22;30950;53.086;21.576;2023-02-22T04:55:02;1.80;99.90
45207;DHT22;30950;53.086;21.576;2023-02-22T04:57:32;1.80;99.90
45207;DHT22;30950;53.086;21.576;2023-02-22T04:59:59;1.80;99.90
45207;DHT22;30950;53.086;21.576;2023-02-22T05:02:27;1.90;99.90
45207;DHT22;30950;53.086;21.576;2023-02-22T05:04:54;2.00;99.90
45207;DHT22;30950;53.086;21.576;2023-02-22T05:07:22;1.90;99.90
45207;DHT22;30950;53.086;21.576;2023-02-22T05:09:49;1.90;99.90
45207;DHT22;30950;53.086;21.576;2023-02-22T05:12:16;1.90;99.90
45207;DHT22;30950;53.086;21.576;2023-02-22T05:14:43;1.90;99.90
45207;DHT22;30950;53.086;21.576;2023-02-22T05:17:11;1.80;99.90
45207;DHT22;30950;53.086;21.576;2023-02-22T05:19:38;1.80;99.90
45207;DHT22;30950;53.086;21.576;2023-02-22T05:22:07;1.80;99.90
45207;DHT22;30950;53.086;21.576;2023-02-22T05:24:34;1.70;99.90
45207;DHT22;30950;53.086;21.576;2023-02-22T05:27:01;1.60;99.90
45207;DHT22;30950;53.086;21.576;2023-02-22T05:29:29;1.70;99.90
45207;DHT22;30950;53.086;21.576;2023-02-22T05:31:56;1.50;99.90
45207;DHT22;30950;53.086;21.576;2023-02-22T05:34:24;1.40;99.90
45207;DHT22;30950;53.086;21.576;2023-02-22T05:36:51;1.30;99.90
45207;DHT22;30950;53.086;21.576;2023-02-22T05:39:19;1.20;99.90
45207;DHT22;30950;53.086;21.576;2023-02-22T05:41:46;1.20;99.90
45207;DHT22;30950;53.086;21.576;2023-02-22T05:44:14;1.10;99.90
45207;DHT22;30950;53.086;21.576;2023-02-22T05:46:41;1.70;99.90
45207;DHT22;30950;53.086;21.576;2023-02-22T05:49:08;1.00;99.90
45207;DHT22;30950;53.086;21.576;2023-02-22T05:51:36;1.50;99.90
45207;DHT22;30950;53.086;21.576;2023-02-22T05:54:03;1.00;99.90
45207;DHT22;30950;53.086;21.576;2023-02-22T05:56:31;1.00;99.90
45207;DHT22;30950;53.086;21.576;2023-02-22T05:58:58;0.90;99.90
45207;DHT22;30950;53.086;21.576;2023-02-22T06:01:26;1.00;99.90
45207;DHT22;30950;53.086;21.576;2023-02-22T06:03:53;1.00;99.90
45207;DHT22;30950;53.086;21.576;2023-02-22T06:06:20;1.00;99.90
45207;DHT22;30950;53.086;21.576;2023-02-22T06:08:48;0.90;99.90
45207;DHT22;30950;53.086;21.576;2023-02-22T06:11:16;1.00;99.90
45207;DHT22;30950;53.086;21.576;2023-02-22T06:13:50;1.00;99.90
45207;DHT22;30950;53.086;21.576;2023-02-22T06:16:19;0.90;99.90
45207;DHT22;30950;53.086;21.576;2023-02-22T06:18:47;0.90;99.90
45207;DHT22;30950;53.086;21.576;2023-02-22T06:21:15;0.90;99.90
45207;DHT22;30950;53.086;21.576;2023-02-22T06:23:43;0.80;99.90
45207;DHT22;30950;53.086;21.576;2023-02-22T06:26:11;0.90;99.90
45207;DHT22;30950;53.086;21.576;2023-02-22T06:28:38;0.80;99.90
45207;DHT22;30950;53.086;21.576;2023-02-22T06:31:05;0.90;99.90
45207;DHT22;30950;53.086;21.576;2023-02-22T06:33:33;0.80;99.90
45207;DHT22;30950;53.086;21.576;2023-02-22T06:36:00;0.90;99.90
45207;DHT22;30950;53.086;21.576;2023-02-22T06:38:27;0.70;99.90
45207;DHT22;30950;53.086;21.576;2023-02-22T06:40:55;0.70;99.90
45207;DHT22;30950;53.086;21.576;2023-02-22T06:43:23;0.70;99.90
45207;DHT22;30950;53.086;21.576;2023-02-22T06:45:53;0.70;99.90
45207;DHT22;30950;53.086;21.576;2023-02-22T06:48:20;1.40;99.90
45207;DHT22;30950;53.086;21.576;2023-02-22T06:50:48;0.70;99.90
45207;DHT22;30950;53.086;21.576;2023-02-22T06:53:15;0.70;99.90
45207;DHT22;30950;53.086;21.576;2023-02-22T06:55:43;0.70;99.90
45207;DHT22;30950;53.086;21.576;2023-02-22T06:58:10;0.70;99.90
45207;DHT22;30950;53.086;21.576;2023-02-22T07:00:37;0.60;99.90
45207;DHT22;30950;53.086;21.576;2023-02-22T07:03:05;0.90;99.90
45207;DHT22;30950;53.086;21.576;2023-02-22T07:05:32;0.70;99.90
45207;DHT22;30950;53.086;21.576;2023-02-22T07:08:05;0.70;99.90
45207;DHT22;30950;53.086;21.576;2023-02-22T07:10:35;0.70;99.90
45207;DHT22;30950;53.086;21.576;2023-02-22T07:13:05;0.70;99.90
45207;DHT22;30950;53.086;21.576;2023-02-22T07:15:33;0.80;99.90
45207;DHT22;30950;53.086;21.576;2023-02-22T07:18:01;0.80;99.90
45207;DHT22;30950;53.086;21.576;2023-02-22T07:20:30;1.50;99.90
45207;DHT22;30950;53.086;21.576;2023-02-22T07:22:57;0.80;99.90
45207;DHT22;30950;53.086;21.576;2023-02-22T07:25:25;0.80;99.90
45207;DHT22;30950;53.086;21.576;2023-02-22T07:27:52;0.90;99.90
45207;DHT22;30950;53.086;21.576;2023-02-22T07:30:25;0.90;99.90
45207;DHT22;30950;53.086;21.576;2023-02-22T07:32:58;0.90;99.90
45207;DHT22;30950;53.086;21.576;2023-02-22T07:35:29;1.00;99.90
45207;DHT22;30950;53.086;21.576;2023-02-22T07:37:57;1.00;99.90
45207;DHT22;30950;53.086;21.576;2023-02-22T07:40:25;1.00;99.90
45207;DHT22;30950;53.086;21.576;2023-02-22T07:43:01;1.10;99.90
45207;DHT22;30950;53.086;21.576;2023-02-22T07:45:30;1.20;99.90
45207;DHT22;30950;53.086;21.576;2023-02-22T07:48:00;1.20;99.90
45207;DHT22;30950;53.086;21.576;2023-02-22T07:50:29;1.30;99.90
45207;DHT22;30950;53.086;21.576;2023-02-22T07:53:00;1.30;99.90
45207;DHT22;30950;53.086;21.576;2023-02-22T07:55:29;1.30;99.90
45207;DHT22;30950;53.086;21.576;2023-02-22T07:57:58;1.40;99.90
45207;DHT22;30950;53.086;21.576;2023-02-22T08:00:35;1.50;99.90
45207;DHT22;30950;53.086;21.576;2023-02-22T08:03:10;1.60;99.90
45207;DHT22;30950;53.086;21.576;2023-02-22T08:05:40;1.60;99.90
45207;DHT22;30950;53.086;21.576;2023-02-22T08:08:08;1.60;99.90
45207;DHT22;30950;53.086;21.576;2023-02-22T08:10:35;1.70;99.90
45207;DHT22;30950;53.086;21.576;2023-02-22T08:13:04;1.70;99.90
45207;DHT22;30950;53.086;21.576;2023-02-22T08:15:34;1.70;99.90
45207;DHT22;30950;53.086;21.576;2023-02-22T08:18:04;1.80;99.90
45207;DHT22;30950;53.086;21.576;2023-02-22T08:20:31;1.80;99.90
45207;DHT22;30950;53.086;21.576;2023-02-22T08:22:58;1.80;99.90
45207;DHT22;30950;53.086;21.576;2023-02-22T08:25:27;1.70;99.90
45207;DHT22;30950;53.086;21.576;2023-02-22T08:28:01;1.70;99.90
45207;DHT22;30950;53.086;21.576;2023-02-22T08:30:30;1.70;99.90
45207;DHT22;30950;53.086;21.576;2023-02-22T08:32:58;1.80;99.90
45207;DHT22;30950;53.086;21.576;2023-02-22T08:35:26;1.90;99.90
45207;DHT22;30950;53.086;21.576;2023-02-22T08:37:59;1.80;99.90
45207;DHT22;30950;53.086;21.576;2023-02-22T08:40:29;1.80;99.90
45207;DHT22;30950;53.086;21.576;2023-02-22T08:42:57;1.90;99.90
45207;DHT22;30950;53.086;21.576;2023-02-22T08:45:25;1.90;99.90
45207;DHT22;30950;53.086;21.576;2023-02-22T08:47:52;1.80;99.90
45207;DHT22;30950;53.086;21.576;2023-02-22T08:50:23;1.80;99.90
45207;DHT22;30950;53.086;21.576;2023-02-22T08:52:53;1.80;99.90
45207;DHT22;30950;53.086;21.576;2023-02-22T08:55:30;1.80;99.90
45207;DHT22;30950;53.086;21.576;2023-02-22T08:57:59;1.90;99.90
45207;DHT22;30950;53.086;21.576;2023-02-22T09:00:28;1.90;99.90
45207;DHT22;30950;53.086;21.576;2023-02-22T09:03:02;1.90;99.90
45207;DHT22;30950;53.086;21.576;2023-02-22T09:05:30;1.90;99.90
45207;DHT22;30950;53.086;21.576;2023-02-22T09:07:58;2.00;99.90
45207;DHT22;30950;53.086;21.576;2023-02-22T09:10:29;2.00;99.90
45207;DHT22;30950;53.086;21.576;2023-02-22T09:12:57;2.00;99.90
45207;DHT22;30950;53.086;21.576;2023-02-22T09:15:28;2.00;99.90
45207;DHT22;30950;53.086;21.576;2023-02-22T09:17:55;2.00;99.90
45207;DHT22;30950;53.086;21.576;2023-02-22T09:20:23;2.00;99.90
45207;DHT22;30950;53.086;21.576;2023-02-22T09:22:51;1.90;99.90
45207;DHT22;30950;53.086;21.576;2023-02-22T09:25:20;1.90;99.90
45207;DHT22;30950;53.086;21.576;2023-02-22T09:27:48;1.90;99.90
45207;DHT22;30950;53.086;21.576;2023-02-22T09:32:54;1.90;99.90
45207;DHT22;30950;53.086;21.576;2023-02-22T09:35:24;1.90;99.90
45207;DHT22;30950;53.086;21.576;2023-02-22T09:37:58;1.90;99.90
45207;DHT22;30950;53.086;21.576;2023-02-22T09:40:29;1.90;99.90
45207;DHT22;30950;53.086;21.576;2023-02-22T09:43:24;2.00;99.90
45207;DHT22;30950;53.086;21.576;2023-02-22T09:46:34;2.00;99.90
45207;DHT22;30950;53.086;21.576;2023-02-22T09:51:42;2.00;99.90
45207;DHT22;30950;53.086;21.576;2023-02-22T09:57:05;2.10;99.90
45207;DHT22;30950;53.086;21.576;2023-02-22T09:59:39;2.10;99.90
45207;DHT22;30950;53.086;21.576;2023-02-22T10:02:26;2.20;99.90
45207;DHT22;30950;53.086;21.576;2023-02-22T10:05:05;2.20;99.90
45207;DHT22;30950;53.086;21.576;2023-02-22T10:07:39;2.30;99.90
45207;DHT22;30950;53.086;21.576;2023-02-22T10:10:17;2.30;99.90
45207;DHT22;30950;53.086;21.576;2023-02-22T10:15:49;2.40;99.90
45207;DHT22;30950;53.086;21.576;2023-02-22T10:27:21;2.50;99.90
45207;DHT22;30950;53.086;21.576;2023-02-22T10:29:57;2.50;99.90
45207;DHT22;30950;53.086;21.576;2023-02-22T10:32:33;2.50;99.90
45207;DHT22;30950;53.086;21.576;2023-02-22T10:35:05;2.50;99.90
45207;DHT22;30950;53.086;21.576;2023-02-22T10:37:36;2.40;99.90
45207;DHT22;30950;53.086;21.576;2023-02-22T10:40:20;2.40;99.90
45207;DHT22;30950;53.086;21.576;2023-02-22T10:42:49;2.40;99.90
45207;DHT22;30950;53.086;21.576;2023-02-22T10:47:47;2.40;99.90
45207;DHT22;30950;53.086;21.576;2023-02-22T10:50:15;2.40;99.90
45207;DHT22;30950;53.086;21.576;2023-02-22T10:52:42;2.50;99.90
45207;DHT22;30950;53.086;21.576;2023-02-22T10:55:13;2.60;99.90
45207;DHT22;30950;53.086;21.576;2023-02-22T10:57:45;2.60;99.90
45207;DHT22;30950;53.086;21.576;2023-02-22T11:02:58;2.60;99.90
45207;DHT22;30950;53.086;21.576;2023-02-22T11:05:38;2.60;99.90
45207;DHT22;30950;53.086;21.576;2023-02-22T11:10:54;2.60;99.90
45207;DHT22;30950;53.086;21.576;2023-02-22T11:13:40;2.60;99.90
45207;DHT22;30950;53.086;21.576;2023-02-22T11:16:19;2.60;99.90
45207;DHT22;30950;53.086;21.576;2023-02-22T11:18:47;2.70;99.90
45207;DHT22;30950;53.086;21.576;2023-02-22T11:21:20;2.70;99.90
45207;DHT22;30950;53.086;21.576;2023-02-22T11:23:49;2.70;99.90
45207;DHT22;30950;53.086;21.576;2023-02-22T11:26:27;2.70;99.90
45207;DHT22;30950;53.086;21.576;2023-02-22T11:29:14;2.70;99.90
45207;DHT22;30950;53.086;21.576;2023-02-22T11:31:45;2.70;99.90
45207;DHT22;30950;53.086;21.576;2023-02-22T11:34:35;2.80;99.90
45207;DHT22;30950;53.086;21.576;2023-02-22T11:37:26;2.80;99.90
45207;DHT22;30950;53.086;21.576;2023-02-22T11:40:18;2.80;99.90
45207;DHT22;30950;53.086;21.576;2023-02-22T11:42:49;2.80;99.90
45207;DHT22;30950;53.086;21.576;2023-02-22T11:45:31;2.80;99.90
45207;DHT22;30950;53.086;21.576;2023-02-22T11:48:01;2.90;99.90
45207;DHT22;30950;53.086;21.576;2023-02-22T11:50:44;2.90;99.90
45207;DHT22;30950;53.086;21.576;2023-02-22T11:53:41;3.00;99.90
45207;DHT22;30950;53.086;21.576;2023-02-22T11:56:39;3.00;99.90
45207;DHT22;30950;53.086;21.576;2023-02-22T12:16:07;2.70;99.90
45207;DHT22;30950;53.086;21.576;2023-02-22T12:20:52;2.70;99.90
45207;DHT22;30950;53.086;21.576;2023-02-22T12:23:48;2.70;99.90
45207;DHT22;30950;53.086;21.576;2023-02-22T12:29:34;2.70;99.90
45207;DHT22;30950;53.086;21.576;2023-02-22T12:31:45;2.70;99.90
45207;DHT22;30950;53.086;21.576;2023-02-22T12:34:36;2.70;99.90
45207;DHT22;30950;53.086;21.576;2023-02-22T12:37:27;2.70;99.90
45207;DHT22;30950;53.086;21.576;2023-02-22T12:40:03;2.60;99.90
45207;DHT22;30950;53.086;21.576;2023-02-22T12:42:46;2.60;99.90
45207;DHT22;30950;53.086;21.576;2023-02-22T12:45:33;2.50;99.90
45207;DHT22;30950;53.086;21.576;2023-02-22T12:48:25;2.40;99.90
45207;DHT22;30950;53.086;21.576;2023-02-22T12:51:03;2.40;99.90
45207;DHT22;30950;53.086;21.576;2023-02-22T12:53:35;2.40;99.90
45207;DHT22;30950;53.086;21.576;2023-02-22T12:56:15;2.40;99.90
45207;DHT22;30950;53.086;21.576;2023-02-22T12:58:53;2.40;99.90
45207;DHT22;30950;53.086;21.576;2023-02-22T13:01:26;2.40;99.90
45207;DHT22;30950;53.086;21.576;2023-02-22T13:03:56;2.40;99.90
45207;DHT22;30950;53.086;21.576;2023-02-22T13:26:20;2.50;99.90
45207;DHT22;30950;53.086;21.576;2023-02-22T13:29:03;2.50;99.90
45207;DHT22;30950;53.086;21.576;2023-02-22T13:48:26;2.30;99.90
45207;DHT22;30950;53.086;21.576;2023-02-22T13:53:57;2.20;99.90
45207;DHT22;30950;53.086;21.576;2023-02-22T13:56:26;2.20;99.90
45207;DHT22;30950;53.086;21.576;2023-02-22T13:58:57;2.20;99.90
45207;DHT22;30950;53.086;21.576;2023-02-22T14:06:58;2.20;99.90
45207;DHT22;30950;53.086;21.576;2023-02-22T14:09:48;2.20;99.90
45207;DHT22;30950;53.086;21.576;2023-02-22T14:15:21;2.20;99.90
45207;DHT22;30950;53.086;21.576;2023-02-22T14:18:17;2.20;99.90
45207;DHT22;30950;53.086;21.576;2023-02-22T14:20:44;2.10;99.90
45207;DHT22;30950;53.086;21.576;2023-02-22T14:26:26;2.00;99.90
45207;DHT22;30950;53.086;21.576;2023-02-22T14:34:21;2.10;99.90
45207;DHT22;30950;53.086;21.576;2023-02-22T14:37:11;2.10;99.90
45207;DHT22;30950;53.086;21.576;2023-02-22T14:39:50;2.10;99.90
45207;DHT22;30950;53.086;21.576;2023-02-22T14:47:43;2.20;99.90
45207;DHT22;30950;53.086;21.576;2023-02-22T14:50:20;2.20;99.90
45207;DHT22;30950;53.086;21.576;2023-02-22T14:53:03;2.30;99.90
45207;DHT22;30950;53.086;21.576;2023-02-22T14:55:48;2.30;99.90
45207;DHT22;30950;53.086;21.576;2023-02-22T14:58:24;2.30;99.90
45207;DHT22;30950;53.086;21.576;2023-02-22T15:00:55;2.30;99.90
45207;DHT22;30950;53.086;21.576;2023-02-22T15:03:32;2.30;99.90
45207;DHT22;30950;53.086;21.576;2023-02-22T15:06:17;2.30;99.90
45207;DHT22;30950;53.086;21.576;2023-02-22T15:08:46;2.30;99.90
45207;DHT22;30950;53.086;21.576;2023-02-22T15:11:27;2.30;99.90
45207;DHT22;30950;53.086;21.576;2023-02-22T15:13:58;2.20;99.90
45207;DHT22;30950;53.086;21.576;2023-02-22T15:16:31;2.20;99.90
45207;DHT22;30950;53.086;21.576;2023-02-22T15:19:03;2.20;99.90
45207;DHT22;30950;53.086;21.576;2023-02-22T15:21:34;2.20;99.90
45207;DHT22;30950;53.086;21.576;2023-02-22T15:24:03;2.10;99.90
45207;DHT22;30950;53.086;21.576;2023-02-22T15:26:33;2.20;99.90
45207;DHT22;30950;53.086;21.576;2023-02-22T15:29:34;2.10;99.90
45207;DHT22;30950;53.086;21.576;2023-02-22T15:32:10;2.10;99.90
45207;DHT22;30950;53.086;21.576;2023-02-22T15:34:44;2.10;99.90
45207;DHT22;30950;53.086;21.576;2023-02-22T15:37:23;2.00;99.90
45207;DHT22;30950;53.086;21.576;2023-02-22T15:40:06;2.00;99.90
45207;DHT22;30950;53.086;21.576;2023-02-22T15:42:51;2.00;99.90
45207;DHT22;30950;53.086;21.576;2023-02-22T15:45:21;2.00;99.90
45207;DHT22;30950;53.086;21.576;2023-02-22T15:47:51;2.00;99.90
45207;DHT22;30950;53.086;21.576;2023-02-22T15:53:01;1.90;99.90
45207;DHT22;30950;53.086;21.576;2023-02-22T15:55:35;1.90;99.90
45207;DHT22;30950;53.086;21.576;2023-02-22T15:58:20;1.90;99.90
45207;DHT22;30950;53.086;21.576;2023-02-22T16:01:07;1.90;99.90
45207;DHT22;30950;53.086;21.576;2023-02-22T16:03:46;1.90;99.90
45207;DHT22;30950;53.086;21.576;2023-02-22T16:06:37;1.80;99.90
45207;DHT22;30950;53.086;21.576;2023-02-22T16:11:45;1.80;99.90
45207;DHT22;30950;53.086;21.576;2023-02-22T16:14:26;1.70;99.90
45207;DHT22;30950;53.086;21.576;2023-02-22T16:17:11;1.70;99.90
45207;DHT22;30950;53.086;21.576;2023-02-22T16:19:41;1.60;99.90
45207;DHT22;30950;53.086;21.576;2023-02-22T16:22:30;1.50;99.90
45207;DHT22;30950;53.086;21.576;2023-02-22T16:27:53;1.50;99.90
45207;DHT22;30950;53.086;21.576;2023-02-22T16:30:38;1.40;99.90
45207;DHT22;30950;53.086;21.576;2023-02-22T16:33:08;1.40;99.90
45207;DHT22;30950;53.086;21.576;2023-02-22T16:35:40;1.30;99.90
45207;DHT22;30950;53.086;21.576;2023-02-22T16:38:18;1.30;99.90
45207;DHT22;30950;53.086;21.576;2023-02-22T16:40:53;1.30;99.90
45207;DHT22;30950;53.086;21.576;2023-02-22T16:43:29;1.30;99.90
45207;DHT22;30950;53.086;21.576;2023-02-22T16:46:00;1.30;99.90
45207;DHT22;30950;53.086;21.576;2023-02-22T16:48:30;1.30;99.90
45207;DHT22;30950;53.086;21.576;2023-02-22T16:51:18;1.30;99.90
45207;DHT22;30950;53.086;21.576;2023-02-22T16:53:47;1.30;99.90
45207;DHT22;30950;53.086;21.576;2023-02-22T16:56:17;1.30;99.90
45207;DHT22;30950;53.086;21.576;2023-02-22T16:58:47;1.30;99.90
45207;DHT22;30950;53.086;21.576;2023-02-22T17:01:17;1.40;99.90
45207;DHT22;30950;53.086;21.576;2023-02-22T17:03:45;1.30;99.90
45207;DHT22;30950;53.086;21.576;2023-02-22T17:06:12;1.40;99.90
45207;DHT22;30950;53.086;21.576;2023-02-22T17:08:40;1.40;99.90
45207;DHT22;30950;53.086;21.576;2023-02-22T17:11:10;1.40;99.90
45207;DHT22;30950;53.086;21.576;2023-02-22T17:13:38;1.40;99.90
45207;DHT22;30950;53.086;21.576;2023-02-22T17:16:12;1.40;99.90
45207;DHT22;30950;53.086;21.576;2023-02-22T17:18:40;1.50;99.90
45207;DHT22;30950;53.086;21.576;2023-02-22T17:21:09;1.50;99.90
45207;DHT22;30950;53.086;21.576;2023-02-22T17:23:37;1.50;99.90
45207;DHT22;30950;53.086;21.576;2023-02-22T17:26:04;1.40;99.90
45207;DHT22;30950;53.086;21.576;2023-02-22T17:28:32;1.50;99.90
45207;DHT22;30950;53.086;21.576;2023-02-22T17:30:59;1.50;99.90
45207;DHT22;30950;53.086;21.576;2023-02-22T17:33:31;1.50;99.90
45207;DHT22;30950;53.086;21.576;2023-02-22T17:36:00;1.40;99.90
45207;DHT22;30950;53.086;21.576;2023-02-22T17:38:29;1.50;99.90
45207;DHT22;30950;53.086;21.576;2023-02-22T17:40:58;1.50;99.90
45207;DHT22;30950;53.086;21.576;2023-02-22T17:43:27;1.50;99.90
45207;DHT22;30950;53.086;21.576;2023-02-22T17:45:54;1.50;99.90
45207;DHT22;30950;53.086;21.576;2023-02-22T17:48:22;1.50;99.90
45207;DHT22;30950;53.086;21.576;2023-02-22T17:50:51;1.50;99.90
45207;DHT22;30950;53.086;21.576;2023-02-22T17:53:20;1.50;99.90
45207;DHT22;30950;53.086;21.576;2023-02-22T17:55:51;1.50;99.90
45207;DHT22;30950;53.086;21.576;2023-02-22T17:58:19;1.50;99.90
45207;DHT22;30950;53.086;21.576;2023-02-22T18:00:48;1.50;99.90
45207;DHT22;30950;53.086;21.576;2023-02-22T18:03:19;1.50;99.90
45207;DHT22;30950;53.086;21.576;2023-02-22T18:05:49;1.50;99.90
45207;DHT22;30950;53.086;21.576;2023-02-22T18:08:18;1.50;99.90
45207;DHT22;30950;53.086;21.576;2023-02-22T18:10:45;1.50;99.90
45207;DHT22;30950;53.086;21.576;2023-02-22T18:13:14;1.50;99.90
45207;DHT22;30950;53.086;21.576;2023-02-22T18:15:44;1.40;99.90
45207;DHT22;30950;53.086;21.576;2023-02-22T18:18:14;1.40;99.90
45207;DHT22;30950;53.086;21.576;2023-02-22T18:20:45;1.40;99.90
45207;DHT22;30950;53.086;21.576;2023-02-22T18:23:15;1.40;99.90
45207;DHT22;30950;53.086;21.576;2023-02-22T18:25:47;1.40;99.90
45207;DHT22;30950;53.086;21.576;2023-02-22T18:28:35;1.40;99.90
45207;DHT22;30950;53.086;21.576;2023-02-22T18:31:09;1.40;99.90